sensor_id;sensor_type;location;lat;lon;timestamp;temperature;humidity
36556;DHT22;40859;50.560;7.268;2022-12-11T06:43:50;19.40;77.50
36556;DHT22;40859;50.560;7.268;2022-12-11T06:46:18;19.50;77.20
36556;DHT22;40859;50.560;7.268;2022-12-11T06:48:47;19.40;77.20
36556;DHT22;40859;50.560;7.268;2022-12-11T06:51:18;19.50;77.40
36556;DHT22;40859;50.560;7.268;2022-12-11T06:53:52;19.50;77.50
36556;DHT22;40859;50.560;7.268;2022-12-11T06:56:22;19.50;77.50
36556;DHT22;40859;50.560;7.268;2022-12-11T06:58:49;19.50;77.50
36556;DHT22;40859;50.560;7.268;2022-12-11T07:01:23;19.50;77.50
36556;DHT22;40859;50.560;7.268;2022-12-11T07:03:55;19.60;77.60
36556;DHT22;40859;50.560;7.268;2022-12-11T07:06:26;19.60;77.60
36556;DHT22;40859;50.560;7.268;2022-12-11T07:08:53;19.60;77.60
36556;DHT22;40859;50.560;7.268;2022-12-11T07:11:21;19.60;77.50
36556;DHT22;40859;50.560;7.268;2022-12-11T07:13:47;19.60;77.50
36556;DHT22;40859;50.560;7.268;2022-12-11T07:16:15;19.60;77.50
36556;DHT22;40859;50.560;7.268;2022-12-11T07:19:18;19.60;77.40
36556;DHT22;40859;50.560;7.268;2022-12-11T07:21:44;19.60;77.40
36556;DHT22;40859;50.560;7.268;2022-12-11T07:24:10;19.60;77.50
36556;DHT22;40859;50.560;7.268;2022-12-11T07:26:36;19.60;77.40
36556;DHT22;40859;50.560;7.268;2022-12-11T07:29:03;19.70;77.40
36556;DHT22;40859;50.560;7.268;2022-12-11T07:31:30;19.70;77.30
36556;DHT22;40859;50.560;7.268;2022-12-11T07:34:03;19.70;77.30
36556;DHT22;40859;50.560;7.268;2022-12-11T07:36:30;19.70;77.30
36556;DHT22;40859;50.560;7.268;2022-12-11T07:38:59;19.70;77.20
36556;DHT22;40859;50.560;7.268;2022-12-11T07:41:25;19.70;77.20
36556;DHT22;40859;50.560;7.268;2022-12-11T07:43:54;19.60;72.20
36556;DHT22;40859;50.560;7.268;2022-12-11T07:46:25;19.60;77.00
36556;DHT22;40859;50.560;7.268;2022-12-11T07:48:51;19.60;77.10
36556;DHT22;40859;50.560;7.268;2022-12-11T07:51:34;19.60;77.00
36556;DHT22;40859;50.560;7.268;2022-12-11T07:54:06;19.60;77.00
36556;DHT22;40859;50.560;7.268;2022-12-11T07:56:45;19.60;77.10
36556;DHT22;40859;50.560;7.268;2022-12-11T07:59:12;19.60;77.10
36556;DHT22;40859;50.560;7.268;2022-12-11T08:01:39;19.60;77.20
36556;DHT22;40859;50.560;7.268;2022-12-11T08:04:09;19.60;77.10
36556;DHT22;40859;50.560;7.268;2022-12-11T08:06:38;19.70;77.20
36556;DHT22;40859;50.560;7.268;2022-12-11T08:09:07;19.70;77.20
36556;DHT22;40859;50.560;7.268;2022-12-11T08:11:34;19.60;77.20
36556;DHT22;40859;50.560;7.268;2022-12-11T08:14:02;19.70;77.30
36556;DHT22;40859;50.560;7.268;2022-12-11T08:16:28;19.70;77.20
36556;DHT22;40859;50.560;7.268;2022-12-11T08:18:55;19.70;77.10
36556;DHT22;40859;50.560;7.268;2022-12-11T08:21:23;19.70;77.00
36556;DHT22;40859;50.560;7.268;2022-12-11T08:23:51;19.70;76.90
36556;DHT22;40859;50.560;7.268;2022-12-11T08:26:23;19.70;76.90
36556;DHT22;40859;50.560;7.268;2022-12-11T08:28:49;19.70;76.70
36556;DHT22;40859;50.560;7.268;2022-12-11T08:31:17;19.70;76.70
36556;DHT22;40859;50.560;7.268;2022-12-11T08:33:44;19.70;76.50
36556;DHT22;40859;50.560;7.268;2022-12-11T08:36:14;19.70;76.50
36556;DHT22;40859;50.560;7.268;2022-12-11T08:38:40;19.70;76.50
36556;DHT22;40859;50.560;7.268;2022-12-11T08:41:12;19.70;76.40
36556;DHT22;40859;50.560;7.268;2022-12-11T08:43:38;19.70;76.50
36556;DHT22;40859;50.560;7.268;2022-12-11T08:46:05;19.70;76.50
36556;DHT22;40859;50.560;7.268;2022-12-11T08:48:33;19.70;76.50
36556;DHT22;40859;50.560;7.268;2022-12-11T08:51:04;19.70;76.50
36556;DHT22;40859;50.560;7.268;2022-12-11T08:53:33;19.70;76.50
36556;DHT22;40859;50.560;7.268;2022-12-11T08:56:16;19.70;76.40
36556;DHT22;40859;50.560;7.268;2022-12-11T08:58:43;19.70;76.50
36556;DHT22;40859;50.560;7.268;2022-12-11T09:01:11;19.70;76.50
36556;DHT22;40859;50.560;7.268;2022-12-11T09:03:38;19.70;76.50
36556;DHT22;40859;50.560;7.268;2022-12-11T09:06:11;19.70;77.30
36556;DHT22;40859;50.560;7.268;2022-12-11T09:08:38;19.70;76.40
36556;DHT22;40859;50.560;7.268;2022-12-11T09:11:08;19.70;76.30
36556;DHT22;40859;50.560;7.268;2022-12-11T09:13:35;19.80;76.50
36556;DHT22;40859;50.560;7.268;2022-12-11T09:16:04;19.70;76.50
36556;DHT22;40859;50.560;7.268;2022-12-11T09:18:30;19.70;76.60
36556;DHT22;40859;50.560;7.268;2022-12-11T09:21:01;19.70;76.70
36556;DHT22;40859;50.560;7.268;2022-12-11T09:23:29;19.70;76.80
36556;DHT22;40859;50.560;7.268;2022-12-11T09:25:56;19.80;76.80
36556;DHT22;40859;50.560;7.268;2022-12-11T09:28:23;19.70;77.80
36556;DHT22;40859;50.560;7.268;2022-12-11T09:30:49;19.80;76.90
36556;DHT22;40859;50.560;7.268;2022-12-11T09:33:16;19.80;76.90
36556;DHT22;40859;50.560;7.268;2022-12-11T09:35:42;19.80;76.90
36556;DHT22;40859;50.560;7.268;2022-12-11T09:38:09;19.80;77.00
36556;DHT22;40859;50.560;7.268;2022-12-11T09:40:40;19.80;77.00
36556;DHT22;40859;50.560;7.268;2022-12-11T09:43:37;19.80;77.00
36556;DHT22;40859;50.560;7.268;2022-12-11T09:46:08;19.80;77.10
36556;DHT22;40859;50.560;7.268;2022-12-11T09:48:34;19.80;77.20
36556;DHT22;40859;50.560;7.268;2022-12-11T09:51:09;19.80;77.20
36556;DHT22;40859;50.560;7.268;2022-12-11T15:56:02;19.70;79.10
36556;DHT22;40859;50.560;7.268;2022-12-11T15:58:29;19.70;79.80
36556;DHT22;40859;50.560;7.268;2022-12-11T16:00:55;19.70;79.70
36556;DHT22;40859;50.560;7.268;2022-12-11T16:03:22;19.80;79.90
36556;DHT22;40859;50.560;7.268;2022-12-11T16:05:50;19.80;79.80
36556;DHT22;40859;50.560;7.268;2022-12-11T16:08:20;19.80;79.80
36556;DHT22;40859;50.560;7.268;2022-12-11T16:10:47;19.90;79.80
36556;DHT22;40859;50.560;7.268;2022-12-11T16:13:13;19.90;79.80
36556;DHT22;40859;50.560;7.268;2022-12-11T16:15:42;19.90;79.80
36556;DHT22;40859;50.560;7.268;2022-12-11T16:18:15;19.90;79.80
36556;DHT22;40859;50.560;7.268;2022-12-11T16:20:43;19.90;79.80
36556;DHT22;40859;50.560;7.268;2022-12-11T16:23:09;19.90;80.00
36556;DHT22;40859;50.560;7.268;2022-12-11T16:25:37;19.90;80.00
36556;DHT22;40859;50.560;7.268;2022-12-11T16:28:04;19.90;80.10
36556;DHT22;40859;50.560;7.268;2022-12-11T16:30:33;19.90;80.20
36556;DHT22;40859;50.560;7.268;2022-12-11T16:33:00;19.90;80.40
36556;DHT22;40859;50.560;7.268;2022-12-11T16:35:28;20.00;80.60
36556;DHT22;40859;50.560;7.268;2022-12-11T16:37:55;20.00;80.60
36556;DHT22;40859;50.560;7.268;2022-12-11T16:40:22;20.00;80.70
36556;DHT22;40859;50.560;7.268;2022-12-11T16:42:50;20.00;80.70
36556;DHT22;40859;50.560;7.268;2022-12-11T16:45:19;20.00;80.70
36556;DHT22;40859;50.560;7.268;2022-12-11T16:47:46;20.00;80.80
36556;DHT22;40859;50.560;7.268;2022-12-11T16:50:14;20.00;80.80
36556;DHT22;40859;50.560;7.268;2022-12-11T16:52:41;20.00;80.80
36556;DHT22;40859;50.560;7.268;2022-12-11T16:55:09;20.00;80.90
36556;DHT22;40859;50.560;7.268;2022-12-11T16:57:36;20.00;81.00
36556;DHT22;40859;50.560;7.268;2022-12-11T17:00:06;20.00;81.10
36556;DHT22;40859;50.560;7.268;2022-12-11T17:02:34;20.00;81.10
36556;DHT22;40859;50.560;7.268;2022-12-11T17:05:00;20.00;81.20
36556;DHT22;40859;50.560;7.268;2022-12-11T17:07:26;20.00;81.20
36556;DHT22;40859;50.560;7.268;2022-12-11T17:09:51;20.00;81.30
36556;DHT22;40859;50.560;7.268;2022-12-11T17:12:17;20.00;81.30
36556;DHT22;40859;50.560;7.268;2022-12-11T17:14:47;20.00;81.40
36556;DHT22;40859;50.560;7.268;2022-12-11T17:17:14;20.00;81.30
36556;DHT22;40859;50.560;7.268;2022-12-11T17:19:40;20.00;81.30
36556;DHT22;40859;50.560;7.268;2022-12-11T17:22:07;20.10;81.40
36556;DHT22;40859;50.560;7.268;2022-12-11T17:24:33;20.00;81.20
36556;DHT22;40859;50.560;7.268;2022-12-11T17:26:59;20.00;81.20
36556;DHT22;40859;50.560;7.268;2022-12-11T17:29:25;20.00;81.20
36556;DHT22;40859;50.560;7.268;2022-12-11T17:31:52;20.00;81.20
36556;DHT22;40859;50.560;7.268;2022-12-11T17:34:19;20.00;81.20
36556;DHT22;40859;50.560;7.268;2022-12-11T17:36:44;20.00;81.10
36556;DHT22;40859;50.560;7.268;2022-12-11T17:39:11;20.00;81.20
36556;DHT22;40859;50.560;7.268;2022-12-11T17:41:37;20.10;81.20
36556;DHT22;40859;50.560;7.268;2022-12-11T17:44:03;20.10;81.40
36556;DHT22;40859;50.560;7.268;2022-12-11T17:46:29;20.00;81.40
36556;DHT22;40859;50.560;7.268;2022-12-11T17:48:55;20.10;81.50
36556;DHT22;40859;50.560;7.268;2022-12-11T17:51:24;20.10;82.50
36556;DHT22;40859;50.560;7.268;2022-12-11T17:53:51;20.10;81.50
36556;DHT22;40859;50.560;7.268;2022-12-11T17:56:17;20.10;81.50
36556;DHT22;40859;50.560;7.268;2022-12-11T17:58:44;20.10;81.40
36556;DHT22;40859;50.560;7.268;2022-12-11T18:01:11;20.10;81.50
36556;DHT22;40859;50.560;7.268;2022-12-11T18:03:38;20.10;81.40
36556;DHT22;40859;50.560;7.268;2022-12-11T18:06:08;20.10;81.50
36556;DHT22;40859;50.560;7.268;2022-12-11T18:08:36;20.10;81.40
36556;DHT22;40859;50.560;7.268;2022-12-11T18:11:20;20.10;81.50
36556;DHT22;40859;50.560;7.268;2022-12-11T18:13:46;20.10;81.40
36556;DHT22;40859;50.560;7.268;2022-12-11T18:16:19;20.10;81.50
36556;DHT22;40859;50.560;7.268;2022-12-11T18:18:47;20.10;81.50
36556;DHT22;40859;50.560;7.268;2022-12-11T18:21:15;20.10;81.40
36556;DHT22;40859;50.560;7.268;2022-12-11T18:23:41;20.10;81.20
36556;DHT22;40859;50.560;7.268;2022-12-11T18:26:07;20.10;81.20
36556;DHT22;40859;50.560;7.268;2022-12-11T18:28:33;20.10;81.10
36556;DHT22;40859;50.560;7.268;2022-12-11T18:31:01;20.10;80.80
36556;DHT22;40859;50.560;7.268;2022-12-11T18:33:29;20.10;80.80
36556;DHT22;40859;50.560;7.268;2022-12-11T18:35:55;20.10;80.90
36556;DHT22;40859;50.560;7.268;2022-12-11T18:38:22;20.10;80.80
36556;DHT22;40859;50.560;7.268;2022-12-11T18:40:49;20.10;80.80
36556;DHT22;40859;50.560;7.268;2022-12-11T18:43:14;20.10;80.90
36556;DHT22;40859;50.560;7.268;2022-12-11T18:45:41;20.10;80.70
36556;DHT22;40859;50.560;7.268;2022-12-11T18:48:07;20.10;80.60
36556;DHT22;40859;50.560;7.268;2022-12-11T18:50:34;20.10;80.40
36556;DHT22;40859;50.560;7.268;2022-12-11T18:53:00;20.10;80.20
36556;DHT22;40859;50.560;7.268;2022-12-11T18:55:27;20.10;80.20
36556;DHT22;40859;50.560;7.268;2022-12-11T18:57:53;20.10;80.40
36556;DHT22;40859;50.560;7.268;2022-12-11T19:00:19;20.00;80.20
36556;DHT22;40859;50.560;7.268;2022-12-11T19:02:49;20.10;80.20
36556;DHT22;40859;50.560;7.268;2022-12-11T19:05:17;20.10;80.30
36556;DHT22;40859;50.560;7.268;2022-12-11T19:07:43;20.10;80.20
36556;DHT22;40859;50.560;7.268;2022-12-11T19:10:09;20.10;80.20
36556;DHT22;40859;50.560;7.268;2022-12-11T19:12:35;20.10;80.30
36556;DHT22;40859;50.560;7.268;2022-12-11T19:15:02;20.10;80.30
36556;DHT22;40859;50.560;7.268;2022-12-11T19:17:28;20.10;80.40
36556;DHT22;40859;50.560;7.268;2022-12-11T19:19:54;20.10;80.40
36556;DHT22;40859;50.560;7.268;2022-12-11T19:22:20;20.10;81.20
36556;DHT22;40859;50.560;7.268;2022-12-11T19:24:46;20.10;80.50
36556;DHT22;40859;50.560;7.268;2022-12-11T19:27:12;20.10;80.40
36556;DHT22;40859;50.560;7.268;2022-12-11T19:29:37;20.10;80.40
36556;DHT22;40859;50.560;7.268;2022-12-11T19:32:14;20.10;80.40
36556;DHT22;40859;50.560;7.268;2022-12-11T19:34:40;20.10;80.40
36556;DHT22;40859;50.560;7.268;2022-12-11T19:37:06;20.10;80.40
36556;DHT22;40859;50.560;7.268;2022-12-11T19:39:32;20.10;80.40
36556;DHT22;40859;50.560;7.268;2022-12-11T19:41:58;20.10;80.40
36556;DHT22;40859;50.560;7.268;2022-12-11T19:44:25;20.10;80.40
36556;DHT22;40859;50.560;7.268;2022-12-11T19:46:51;20.10;80.30
36556;DHT22;40859;50.560;7.268;2022-12-11T19:49:17;20.10;80.30
36556;DHT22;40859;50.560;7.268;2022-12-11T19:51:43;20.10;80.30
36556;DHT22;40859;50.560;7.268;2022-12-11T19:54:13;20.10;80.20
36556;DHT22;40859;50.560;7.268;2022-12-11T19:56:39;20.10;80.20
36556;DHT22;40859;50.560;7.268;2022-12-11T19:59:08;20.10;80.30
36556;DHT22;40859;50.560;7.268;2022-12-11T20:01:36;20.10;80.20
36556;DHT22;40859;50.560;7.268;2022-12-11T20:04:09;20.10;80.20
36556;DHT22;40859;50.560;7.268;2022-12-11T20:06:37;20.10;81.10
36556;DHT22;40859;50.560;7.268;2022-12-11T20:09:07;20.10;80.20
36556;DHT22;40859;50.560;7.268;2022-12-11T20:11:36;20.10;80.20
36556;DHT22;40859;50.560;7.268;2022-12-11T20:14:04;20.10;80.10
36556;DHT22;40859;50.560;7.268;2022-12-11T20:16:31;20.10;80.10
36556;DHT22;40859;50.560;7.268;2022-12-11T20:18:57;20.10;80.10
36556;DHT22;40859;50.560;7.268;2022-12-11T20:21:23;20.10;80.10
36556;DHT22;40859;50.560;7.268;2022-12-11T20:23:49;20.20;80.10
36556;DHT22;40859;50.560;7.268;2022-12-11T20:26:18;20.10;80.00
36556;DHT22;40859;50.560;7.268;2022-12-11T20:28:47;20.20;80.10
36556;DHT22;40859;50.560;7.268;2022-12-11T20:31:19;20.20;80.10
36556;DHT22;40859;50.560;7.268;2022-12-11T20:33:45;20.20;80.10
36556;DHT22;40859;50.560;7.268;2022-12-11T20:36:13;20.20;80.00
36556;DHT22;40859;50.560;7.268;2022-12-11T20:38:40;20.20;80.10
36556;DHT22;40859;50.560;7.268;2022-12-11T20:41:12;20.10;80.00
36556;DHT22;40859;50.560;7.268;2022-12-11T20:43:38;20.10;80.00
36556;DHT22;40859;50.560;7.268;2022-12-11T20:46:05;20.10;80.80
36556;DHT22;40859;50.560;7.268;2022-12-11T20:48:31;20.20;80.00
36556;DHT22;40859;50.560;7.268;2022-12-11T20:51:11;20.20;80.10
36556;DHT22;40859;50.560;7.268;2022-12-11T20:53:38;20.20;80.00
36556;DHT22;40859;50.560;7.268;2022-12-11T20:56:13;20.20;80.00
36556;DHT22;40859;50.560;7.268;2022-12-11T20:58:39;20.20;80.00
36556;DHT22;40859;50.560;7.268;2022-12-11T21:01:06;20.20;80.00
36556;DHT22;40859;50.560;7.268;2022-12-11T21:03:32;20.20;79.90
36556;DHT22;40859;50.560;7.268;2022-12-11T21:06:00;20.20;80.00
36556;DHT22;40859;50.560;7.268;2022-12-11T21:08:26;20.20;79.90
36556;DHT22;40859;50.560;7.268;2022-12-11T21:10:52;20.20;79.90
36556;DHT22;40859;50.560;7.268;2022-12-11T21:13:19;20.10;79.80
